Time,TemperatureF,DewpointF,PressureIn,WindDirection,WindDirectionDegrees,WindSpeedMPH,WindSpeedGustMPH,Humidity,HourlyPrecipIn,Conditions,Clouds,dailyrainin,SolarRadiationWatts/m^2,SoftwareType,DateUTC
2013-11-12 00:11:00,53.0,2.0,-100.00,East,83,0.0,5.0,12,0.00,,,0.00,0.000000,,2013-11-12 08:11:00,
2013-11-12 00:21:00,53.0,2.0,-100.00,East,83,0.0,5.0,12,0.00,,,0.00,0.000000,,2013-11-12 08:21:00,
2013-11-12 00:32:00,53.0,2.0,-100.00,East,83,0.0,5.0,12,0.00,,,0.00,0.000000,,2013-11-12 08:32:00,
2013-11-12 01:21:00,51.0,-2.0,-100.00,West,277,0.0,8.0,11,0.00,,,0.00,0.000000,,2013-11-12 09:21:00,
2013-11-12 01:33:00,51.0,-2.0,-100.00,West,277,0.0,8.0,11,0.00,,,0.00,0.000000,,2013-11-12 09:33:00,
2013-11-12 02:12:00,46.0,7.0,-100.00,SE,134,0.0,3.0,20,0.00,,,0.00,0.000000,,2013-11-12 10:12:00,
2013-11-12 02:23:00,46.0,7.0,-100.00,SE,134,0.0,3.0,20,0.00,,,0.00,0.000000,,2013-11-12 10:23:00,
2013-11-12 02:32:00,46.0,7.0,-100.00,SE,134,0.0,3.0,20,0.00,,,0.00,0.000000,,2013-11-12 10:32:00,
2013-11-12 03:12:00,42.0,4.0,-100.00,NE,40,0.0,0.0,20,0.00,,,0.00,0.000000,,2013-11-12 11:12:00,
2013-11-12 03:22:00,42.0,4.0,-100.00,NE,40,0.0,0.0,20,0.00,,,0.00,0.000000,,2013-11-12 11:22:00,
2013-11-12 03:32:00,42.0,4.0,-100.00,NE,40,0.0,0.0,20,0.00,,,0.00,0.000000,,2013-11-12 11:32:00,
2013-11-12 04:11:00,48.0,7.0,-100.00,NNE,26,0.0,4.0,18,0.00,,,0.00,0.000000,,2013-11-12 12:11:00,
2013-11-12 04:21:00,48.0,7.0,-100.00,NNE,26,0.0,4.0,18,0.00,,,0.00,0.000000,,2013-11-12 12:21:00,
2013-11-12 04:31:00,48.0,7.0,-100.00,NNE,26,0.0,4.0,18,0.00,,,0.00,0.000000,,2013-11-12 12:31:00,
2013-11-12 05:11:00,46.0,4.0,-100.00,SE,129,0.0,4.0,17,0.00,,,0.00,0.000000,,2013-11-12 13:11:00,
2013-11-12 05:22:00,46.0,4.0,-100.00,SE,129,0.0,4.0,17,0.00,,,0.00,0.000000,,2013-11-12 13:22:00,
2013-11-12 05:31:00,46.0,4.0,-100.00,SE,129,0.0,4.0,17,0.00,,,0.00,0.000000,,2013-11-12 13:31:00,
2013-11-12 06:11:00,42.0,7.0,-100.00,SE,140,0.0,0.0,23,0.00,,,0.00,0.000000,,2013-11-12 14:11:00,
2013-11-12 06:21:00,42.0,7.0,-100.00,SE,140,0.0,0.0,23,0.00,,,0.00,0.000000,,2013-11-12 14:21:00,
2013-11-12 06:32:00,42.0,7.0,-100.00,SE,140,0.0,0.0,23,0.00,,,0.00,0.000000,,2013-11-12 14:32:00,
2013-11-12 07:11:00,44.0,4.0,-100.00,SE,141,0.0,0.0,19,0.00,,,0.00,3.000000,,2013-11-12 15:11:00,
2013-11-12 07:21:00,44.0,4.0,-100.00,SE,141,0.0,0.0,19,0.00,,,0.00,3.000000,,2013-11-12 15:21:00,
2013-11-12 07:33:00,44.0,4.0,-100.00,SE,141,0.0,0.0,19,0.00,,,0.00,3.000000,,2013-11-12 15:33:00,
2013-11-12 08:12:00,50.0,13.0,-100.00,SE,136,0.0,0.0,22,0.00,,,0.00,58.000000,,2013-11-12 16:12:00,
2013-11-12 08:23:00,50.0,13.0,-100.00,SE,136,0.0,0.0,22,0.00,,,0.00,58.000000,,2013-11-12 16:23:00,
2013-11-12 08:33:00,50.0,13.0,-100.00,SE,136,0.0,0.0,22,0.00,,,0.00,58.000000,,2013-11-12 16:33:00,
2013-11-12 09:12:00,62.0,12.0,-100.00,SSE,160,0.0,0.0,14,0.00,,,0.00,193.000000,,2013-11-12 17:12:00,
2013-11-12 12:11:00,67.0,11.0,-100.00,WSW,239,1.0,7.0,11,-99.99,,,0.00,376.000000,,2013-11-12 20:11:00,
2013-11-12 12:21:00,67.0,11.0,-100.00,WSW,239,1.0,7.0,11,-99.99,,,0.00,376.000000,,2013-11-12 20:21:00,
2013-11-12 12:31:00,67.0,11.0,-100.00,WSW,239,1.0,7.0,11,-99.99,,,0.00,376.000000,,2013-11-12 20:31:00,
2013-11-12 13:12:00,66.0,8.0,-100.00,SW,231,0.0,5.0,10,0.00,,,0.00,366.000000,,2013-11-12 21:12:00,
2013-11-12 13:22:00,66.0,8.0,-100.00,SW,231,0.0,5.0,10,0.00,,,0.00,366.000000,,2013-11-12 21:22:00,
2013-11-12 13:34:00,66.0,8.0,-100.00,SW,231,0.0,5.0,10,0.00,,,0.00,366.000000,,2013-11-12 21:34:00,
2013-11-12 14:14:00,62.0,15.0,-100.00,WSW,248,0.0,7.0,16,0.00,,,0.00,242.000000,,2013-11-12 22:14:00,
2013-11-12 14:24:00,62.0,15.0,-100.00,WSW,248,0.0,7.0,16,0.00,,,0.00,242.000000,,2013-11-12 22:24:00,
2013-11-12 14:33:00,62.0,15.0,-100.00,WSW,248,0.0,7.0,16,0.00,,,0.00,242.000000,,2013-11-12 22:33:00,
2013-11-12 15:12:00,61.0,17.0,-100.00,SSW,206,1.0,5.0,18,0.00,,,0.00,178.000000,,2013-11-12 23:12:00,
2013-11-12 15:23:00,61.0,17.0,-100.00,SSW,206,1.0,5.0,18,0.00,,,0.00,178.000000,,2013-11-12 23:23:00,
2013-11-12 15:33:00,61.0,17.0,-100.00,SSW,206,1.0,5.0,18,0.00,,,0.00,178.000000,,2013-11-12 23:33:00,
2013-11-12 16:11:00,59.0,21.0,-100.00,WSW,257,0.0,7.0,23,0.00,,,0.00,111.000000,,2013-11-13 00:11:00,
2013-11-12 16:22:00,59.0,21.0,-100.00,WSW,257,0.0,7.0,23,0.00,,,0.00,111.000000,,2013-11-13 00:22:00,
2013-11-12 16:32:00,59.0,21.0,-100.00,WSW,257,0.0,7.0,23,0.00,,,0.00,111.000000,,2013-11-13 00:32:00,
2013-11-12 17:11:00,55.0,22.0,-100.00,SSE,164,0.0,4.0,27,0.00,,,0.00,62.000000,,2013-11-13 01:11:00,
2013-11-12 17:22:00,55.0,22.0,-100.00,SSE,164,0.0,4.0,27,0.00,,,0.00,62.000000,,2013-11-13 01:22:00,
2013-11-12 17:32:00,55.0,22.0,-100.00,SSE,164,0.0,4.0,27,0.00,,,0.00,62.000000,,2013-11-13 01:32:00,
2013-11-12 18:11:00,50.0,20.0,-100.00,North,350,0.0,0.0,30,0.00,,,0.00,1.000000,,2013-11-13 02:11:00,
2013-11-12 18:22:00,50.0,20.0,-100.00,North,350,0.0,0.0,30,0.00,,,0.00,1.000000,,2013-11-13 02:22:00,
2013-11-12 18:32:00,50.0,20.0,-100.00,North,350,0.0,0.0,30,0.00,,,0.00,1.000000,,2013-11-13 02:32:00,
2013-11-12 19:11:00,48.0,18.0,-100.00,NNW,340,0.0,0.0,30,0.00,,,0.00,0.000000,,2013-11-13 03:11:00,
2013-11-12 19:22:00,48.0,18.0,-100.00,NNW,340,0.0,0.0,30,0.00,,,0.00,0.000000,,2013-11-13 03:22:00,
2013-11-12 19:34:00,48.0,18.0,-100.00,NNW,340,0.0,0.0,30,0.00,,,0.00,0.000000,,2013-11-13 03:34:00,
2013-11-12 20:14:00,48.0,22.0,-100.00,North,6,0.0,0.0,35,0.00,,,0.00,0.000000,,2013-11-13 04:14:00,
2013-11-12 20:23:00,48.0,22.0,-100.00,North,6,0.0,0.0,35,0.00,,,0.00,0.000000,,2013-11-13 04:23:00,
2013-11-12 20:34:00,48.0,22.0,-100.00,North,6,0.0,0.0,35,0.00,,,0.00,0.000000,,2013-11-13 04:34:00,
2013-11-12 21:13:00,47.0,21.0,-100.00,NNW,341,0.0,0.0,35,0.00,,,0.00,0.000000,,2013-11-13 05:13:00,
2013-11-12 21:23:00,47.0,21.0,-100.00,NNW,341,0.0,0.0,35,0.00,,,0.00,0.000000,,2013-11-13 05:23:00,
2013-11-12 21:33:00,47.0,21.0,-100.00,NNW,341,0.0,0.0,35,0.00,,,0.00,0.000000,,2013-11-13 05:33:00,
2013-11-12 22:13:00,43.0,17.0,-100.00,North,1,0.0,0.0,35,0.00,,,0.00,0.000000,,2013-11-13 06:13:00,
2013-11-12 22:22:00,43.0,17.0,-100.00,North,1,0.0,0.0,35,0.00,,,0.00,0.000000,,2013-11-13 06:22:00,
2013-11-12 22:32:00,43.0,17.0,-100.00,North,1,0.0,0.0,35,0.00,,,0.00,0.000000,,2013-11-13 06:32:00,
2013-11-12 23:11:00,41.0,15.0,-100.00,NNW,330,0.0,0.0,34,0.00,,,0.00,0.000000,,2013-11-13 07:11:00,
2013-11-12 23:21:00,41.0,15.0,-100.00,NNW,330,0.0,0.0,34,0.00,,,0.00,0.000000,,2013-11-13 07:21:00,
2013-11-12 23:32:00,41.0,15.0,-100.00,NNW,330,0.0,0.0,34,0.00,,,0.00,0.000000,,2013-11-13 07:32:00,